createdAt,value
2018-04-28T00:02:51.562Z,55.03
2018-04-28T00:07:53.666Z,55.32
2018-04-28T00:12:55.015Z,55.86
2018-04-28T00:17:56.343Z,56.34
2018-04-28T00:23:03.216Z,56.95
2018-04-28T00:28:11.285Z,57.55
2018-04-28T00:33:18.423Z,57.95
2018-04-28T00:38:19.746Z,57.60
2018-04-28T00:43:22.824Z,57.46
2018-04-28T00:54:09.222Z,57.54
2018-04-28T00:59:27.370Z,57.83
2018-04-28T01:04:46.872Z,57.84
2018-04-28T01:09:59.473Z,58.30
2018-04-28T01:20:44.130Z,58.67
2018-04-28T01:25:45.443Z,59.03
2018-04-28T01:30:51.558Z,60.02
2018-04-28T01:36:03.954Z,60.90
2018-04-28T01:41:20.274Z,61.65
2018-04-28T01:51:58.434Z,61.15
2018-04-28T02:02:42.618Z,61.12
2018-04-28T02:07:45.818Z,61.40
2018-04-28T02:12:48.906Z,62.19
2018-04-28T02:29:34.166Z,61.89
2018-04-28T02:34:40.233Z,61.49
2018-04-28T02:45:21.263Z,61.27
2018-04-28T02:50:34.515Z,61.29
2018-04-28T03:07:29.807Z,61.08
2018-04-28T03:12:31.118Z,60.89
2018-04-28T03:17:45.074Z,60.66
2018-04-28T03:22:48.070Z,60.43
2018-04-28T03:34:29.513Z,61.22
2018-04-28T03:39:30.822Z,61.41
2018-04-28T03:44:43.914Z,61.58
2018-04-28T03:49:45.232Z,61.30
2018-04-28T03:54:46.554Z,61.07
2018-04-28T04:00:06.578Z,60.39
2018-04-28T04:05:08.747Z,60.39
2018-04-28T04:10:19.835Z,60.41
2018-04-28T04:15:35.213Z,60.34
2018-04-28T04:27:08.283Z,59.97
2018-04-28T04:32:16.223Z,59.85
2018-04-28T04:37:20.255Z,59.61
2018-04-28T04:48:16.619Z,59.12
2018-04-28T04:53:18.882Z,58.30
2018-04-28T04:58:26.090Z,57.83
2018-04-28T05:09:46.802Z,57.78
2018-04-28T05:15:05.134Z,57.77
2018-04-28T05:20:37.849Z,57.23
2018-04-28T05:25:57.597Z,56.64
2018-04-28T05:37:39.886Z,56.24
2018-04-28T05:42:59.640Z,56.02
2018-04-28T05:59:25.762Z,54.44
2018-04-28T06:04:39.048Z,53.98
2018-04-28T06:10:05.366Z,54.35
2018-04-28T06:15:31.434Z,53.86
2018-04-28T06:20:38.646Z,53.76
2018-04-28T06:25:40.735Z,53.07
2018-04-28T06:30:42.062Z,53.23
2018-04-28T06:35:43.401Z,53.03
2018-04-28T06:40:44.741Z,52.50
2018-04-28T06:45:46.066Z,51.66
2018-04-28T06:50:47.385Z,51.06
2018-04-28T06:55:49.535Z,51.24
2018-04-28T07:00:50.941Z,49.76
2018-04-28T07:05:52.261Z,50.60
2018-04-28T07:10:53.601Z,50.57
2018-04-28T07:15:55.433Z,51.43
2018-04-28T07:20:56.817Z,51.48
2018-04-28T07:25:58.167Z,50.50
2018-04-28T07:30:59.486Z,51.32
2018-04-28T07:36:01.053Z,51.18
2018-04-28T07:41:02.451Z,51.00
2018-04-28T07:46:03.766Z,51.54
2018-04-28T07:51:05.102Z,51.19
2018-04-28T07:56:07.161Z,50.98
2018-04-28T08:01:08.478Z,50.51
2018-04-28T08:06:09.801Z,48.01
2018-04-28T08:11:11.118Z,48.36
2018-04-28T08:16:12.445Z,48.83
2018-04-28T08:21:13.774Z,49.25
2018-04-28T08:26:15.097Z,47.26
2018-04-28T08:31:16.472Z,45.86
2018-04-28T08:36:17.811Z,45.29
2018-04-28T08:41:19.170Z,43.47
2018-04-28T08:46:20.482Z,42.55
2018-04-28T08:51:21.811Z,43.90
2018-04-28T08:56:23.140Z,42.77
2018-04-28T09:01:24.432Z,41.88
2018-04-28T09:06:25.750Z,42.53
2018-04-28T09:11:27.813Z,40.22
2018-04-28T09:16:29.109Z,39.02
2018-04-28T09:21:30.427Z,39.82
2018-04-28T09:26:31.739Z,40.73
2018-04-28T09:31:33.782Z,39.03
2018-04-28T09:36:35.076Z,40.12
2018-04-28T09:41:36.409Z,39.18
2018-04-28T09:46:38.474Z,38.05
2018-04-28T09:51:40.396Z,39.59
2018-04-28T09:56:41.737Z,38.87
2018-04-28T10:01:43.915Z,38.52
2018-04-28T10:06:46.022Z,39.80
2018-04-28T10:11:48.075Z,41.29
2018-04-28T10:16:49.385Z,43.12
2018-04-28T10:21:50.686Z,42.50
2018-04-28T10:26:52.015Z,40.03
2018-04-28T10:31:53.322Z,40.97
2018-04-28T10:36:54.610Z,41.33
2018-04-28T10:41:55.943Z,40.93
2018-04-28T10:46:57.227Z,39.82
2018-04-28T10:51:58.548Z,39.83
2018-04-28T10:57:00.588Z,41.02
2018-04-28T11:02:01.904Z,39.54
2018-04-28T11:07:03.216Z,40.86
2018-04-28T11:12:04.519Z,41.21
2018-04-28T11:17:06.552Z,39.95
2018-04-28T11:22:08.533Z,40.44
2018-04-28T11:27:10.585Z,39.77
2018-04-28T11:32:11.890Z,39.22
2018-04-28T11:37:13.214Z,39.88
2018-04-28T11:42:15.334Z,39.51
2018-04-28T11:47:17.599Z,40.60
2018-04-28T11:52:18.978Z,40.98
2018-04-28T11:57:20.323Z,40.73
2018-04-28T12:02:22.378Z,38.06
2018-04-28T12:07:23.689Z,38.43
2018-04-28T12:12:25.015Z,36.64
2018-04-28T12:17:26.327Z,36.83
2018-04-28T12:22:27.687Z,40.29
2018-04-28T12:27:29.751Z,39.76
2018-04-28T12:32:31.074Z,39.40
2018-04-28T12:37:33.126Z,38.24
2018-04-28T12:42:41.530Z,37.50
2018-04-28T12:47:43.594Z,36.44
2018-04-28T12:52:44.915Z,39.81
2018-04-28T12:57:46.247Z,39.40
2018-04-28T13:02:47.602Z,38.70
2018-04-28T13:07:49.658Z,38.41
2018-04-28T13:12:50.969Z,37.85
2018-04-28T13:17:52.293Z,38.40
2018-04-28T13:22:54.378Z,37.96
2018-04-28T13:27:55.706Z,38.27
2018-04-28T13:32:57.034Z,38.59
2018-04-28T13:37:58.352Z,40.21
2018-04-28T13:42:59.683Z,40.09
2018-04-28T13:48:01.046Z,40.77
2018-04-28T13:53:03.099Z,38.11
2018-04-28T13:58:04.406Z,38.01
2018-04-28T14:03:05.717Z,38.44
2018-04-28T14:08:07.031Z,38.64
2018-04-28T14:13:09.082Z,39.17
2018-04-28T14:18:10.402Z,39.56
2018-04-28T14:23:11.718Z,38.60
2018-04-28T14:28:13.062Z,37.14
2018-04-28T14:33:14.366Z,36.65
2018-04-28T14:38:15.699Z,38.06
2018-04-28T14:43:17.011Z,37.26
2018-04-28T14:48:18.322Z,37.63
2018-04-28T14:53:19.637Z,37.89
2018-04-28T14:58:21.715Z,39.06
2018-04-28T15:03:23.049Z,39.06
2018-04-28T15:08:24.369Z,38.33
2018-04-28T15:13:25.661Z,38.83
2018-04-28T15:18:26.990Z,38.84
2018-04-28T15:23:28.304Z,40.02
2018-04-28T15:28:29.621Z,39.05
2018-04-28T15:33:30.949Z,38.73
2018-04-28T15:38:32.263Z,39.39
2018-04-28T15:43:34.326Z,40.58
2018-04-28T15:48:35.639Z,40.04
2018-04-28T15:53:36.978Z,40.48
2018-04-28T15:58:38.291Z,39.83
2018-04-28T16:03:39.606Z,39.10
2018-04-28T16:08:40.932Z,39.60
2018-04-28T16:13:42.246Z,38.78
2018-04-28T16:18:43.551Z,39.69
2018-04-28T16:23:44.879Z,40.60
2018-04-28T16:28:46.934Z,41.63
2018-04-28T16:33:48.250Z,41.51
2018-04-28T16:38:49.587Z,40.57
2018-04-28T16:43:50.934Z,40.17
2018-04-28T16:48:52.270Z,41.05
2018-04-28T16:53:53.618Z,40.73
2018-04-28T16:58:55.757Z,40.05
2018-04-28T17:03:57.006Z,41.64
2018-04-28T17:08:58.324Z,42.57
2018-04-28T17:13:59.641Z,43.25
2018-04-28T17:19:00.955Z,44.09
2018-04-28T17:24:02.316Z,44.35
2018-04-28T17:29:03.660Z,44.59
2018-04-28T17:34:05.042Z,44.27
2018-04-28T17:39:07.219Z,43.07
2018-04-28T17:44:08.622Z,43.27
2018-04-28T17:49:10.582Z,42.96
2018-04-28T17:54:12.959Z,43.92
2018-04-28T17:59:14.350Z,44.58
2018-04-28T18:04:15.683Z,45.32
2018-04-28T18:09:17.032Z,45.93
2018-04-28T18:14:18.350Z,45.53
2018-04-28T18:19:19.668Z,45.96
2018-04-28T18:24:21.006Z,46.14
2018-04-28T18:29:22.351Z,46.17
2018-04-28T18:34:23.674Z,46.12
2018-04-28T18:39:24.994Z,46.74
2018-04-28T18:44:26.310Z,46.89
2018-04-28T18:49:27.629Z,46.76
2018-04-28T18:54:28.982Z,46.13
2018-04-28T18:59:30.299Z,46.16
2018-04-28T19:04:31.618Z,47.10
2018-04-28T19:09:32.939Z,47.44
2018-04-28T19:14:34.297Z,48.21
2018-04-28T19:19:35.667Z,48.46
2018-04-28T19:24:36.998Z,48.51
2018-04-28T19:29:38.330Z,49.33
2018-04-28T19:34:39.652Z,51.56
2018-04-28T19:39:40.983Z,51.37
2018-04-28T19:44:42.302Z,52.51
2018-04-28T19:49:43.624Z,51.84
2018-04-28T19:54:45.671Z,52.10
2018-04-28T19:59:47.003Z,52.47
2018-04-28T20:04:48.326Z,53.06
2018-04-28T20:09:50.414Z,53.01
2018-04-28T20:14:51.747Z,53.79
2018-04-28T20:19:53.074Z,53.40
2018-04-28T20:25:09.835Z,53.37
2018-04-28T20:30:11.214Z,54.55
2018-04-28T20:35:13.224Z,52.24
2018-04-28T20:40:14.538Z,49.94
2018-04-28T20:45:16.565Z,50.28
2018-04-28T20:50:17.887Z,51.85
2018-04-28T20:55:19.216Z,52.62
2018-04-28T21:00:21.281Z,52.83
2018-04-28T21:05:22.643Z,51.98
2018-04-28T21:10:23.998Z,53.37
2018-04-28T21:15:25.353Z,53.11
2018-04-28T21:20:26.674Z,53.22
2018-04-28T21:25:27.994Z,52.63
2018-04-28T21:30:29.346Z,52.38
2018-04-28T21:35:30.670Z,53.51
2018-04-28T21:40:32.734Z,53.86
2018-04-28T21:45:34.062Z,54.37
2018-04-28T21:50:36.118Z,53.68
2018-04-28T21:55:37.430Z,53.26
2018-04-28T22:00:38.756Z,54.20
2018-04-28T22:05:40.054Z,56.48
2018-04-28T22:10:41.377Z,57.34
2018-04-28T22:15:42.686Z,57.19
2018-04-28T22:20:44.004Z,57.26
2018-04-28T22:25:45.329Z,57.17
2018-04-28T22:30:46.663Z,57.15
2018-04-28T22:35:48.743Z,57.72
2018-04-28T22:40:50.099Z,57.23
2018-04-28T22:45:51.425Z,57.20
2018-04-28T22:50:52.771Z,56.98
2018-04-28T22:55:54.078Z,57.83
2018-04-28T23:00:55.409Z,57.71
2018-04-28T23:05:56.735Z,58.04
2018-04-28T23:10:58.038Z,58.46
2018-04-28T23:15:59.333Z,58.32
2018-04-28T23:21:00.626Z,58.49
2018-04-28T23:26:01.957Z,58.68
2018-04-28T23:31:03.277Z,58.70
2018-04-28T23:36:04.587Z,58.24
2018-04-28T23:41:05.899Z,59.51
2018-04-28T23:46:07.217Z,60.07
2018-04-28T23:51:08.532Z,60.27
2018-04-28T23:56:09.830Z,60.25
